sensor_id;sensor_type;location;lat;lon;timestamp;P1;durP1;ratioP1;P2;durP2;ratioP2
20036;SDS011;10179;42.640;23.312;2023-09-19T00:00:41;7.82;;;5.00;;
20036;SDS011;10179;42.640;23.312;2023-09-19T00:03:08;7.75;;;5.13;;
20036;SDS011;10179;42.640;23.312;2023-09-19T00:05:34;6.63;;;4.53;;
20036;SDS011;10179;42.640;23.312;2023-09-19T00:08:01;10.15;;;5.35;;
20036;SDS011;10179;42.640;23.312;2023-09-19T00:10:29;5.45;;;4.55;;
20036;SDS011;10179;42.640;23.312;2023-09-19T00:13:00;7.80;;;4.90;;
20036;SDS011;10179;42.640;23.312;2023-09-19T00:15:30;9.30;;;5.50;;
20036;SDS011;10179;42.640;23.312;2023-09-19T00:18:01;6.88;;;5.10;;
20036;SDS011;10179;42.640;23.312;2023-09-19T00:20:26;7.80;;;4.90;;
20036;SDS011;10179;42.640;23.312;2023-09-19T00:22:53;6.25;;;4.78;;
20036;SDS011;10179;42.640;23.312;2023-09-19T00:25:19;6.82;;;5.00;;
20036;SDS011;10179;42.640;23.312;2023-09-19T00:27:45;6.70;;;4.78;;
20036;SDS011;10179;42.640;23.312;2023-09-19T00:30:13;6.38;;;4.85;;
20036;SDS011;10179;42.640;23.312;2023-09-19T00:32:42;8.73;;;5.53;;
20036;SDS011;10179;42.640;23.312;2023-09-19T00:35:08;8.00;;;5.40;;
20036;SDS011;10179;42.640;23.312;2023-09-19T00:37:35;8.43;;;5.10;;
20036;SDS011;10179;42.640;23.312;2023-09-19T00:40:01;6.60;;;4.90;;
20036;SDS011;10179;42.640;23.312;2023-09-19T00:42:28;13.02;;;6.35;;
20036;SDS011;10179;42.640;23.312;2023-09-19T00:44:53;10.38;;;5.57;;
20036;SDS011;10179;42.640;23.312;2023-09-19T00:47:19;6.88;;;5.47;;
20036;SDS011;10179;42.640;23.312;2023-09-19T00:49:44;9.98;;;5.55;;
20036;SDS011;10179;42.640;23.312;2023-09-19T00:52:15;11.25;;;6.18;;
20036;SDS011;10179;42.640;23.312;2023-09-19T00:54:44;12.32;;;5.85;;
20036;SDS011;10179;42.640;23.312;2023-09-19T00:57:11;9.75;;;6.00;;
20036;SDS011;10179;42.640;23.312;2023-09-19T00:59:36;11.23;;;5.97;;
20036;SDS011;10179;42.640;23.312;2023-09-19T01:02:02;10.68;;;6.00;;
20036;SDS011;10179;42.640;23.312;2023-09-19T01:04:29;8.05;;;5.90;;
20036;SDS011;10179;42.640;23.312;2023-09-19T01:06:54;8.90;;;5.88;;
20036;SDS011;10179;42.640;23.312;2023-09-19T01:09:20;10.32;;;6.20;;
20036;SDS011;10179;42.640;23.312;2023-09-19T01:11:47;8.80;;;5.80;;
20036;SDS011;10179;42.640;23.312;2023-09-19T01:17:04;8.27;;;5.60;;
20036;SDS011;10179;42.640;23.312;2023-09-19T01:23:05;9.13;;;5.57;;
20036;SDS011;10179;42.640;23.312;2023-09-19T01:30:51;9.95;;;5.65;;
20036;SDS011;10179;42.640;23.312;2023-09-19T01:33:23;7.35;;;5.70;;
20036;SDS011;10179;42.640;23.312;2023-09-19T01:35:48;8.93;;;5.50;;
20036;SDS011;10179;42.640;23.312;2023-09-19T01:38:14;7.68;;;5.43;;
20036;SDS011;10179;42.640;23.312;2023-09-19T01:40:42;11.15;;;5.10;;
20036;SDS011;10179;42.640;23.312;2023-09-19T01:52:00;8.77;;;5.75;;
20036;SDS011;10179;42.640;23.312;2023-09-19T01:54:40;9.07;;;5.95;;
20036;SDS011;10179;42.640;23.312;2023-09-19T01:57:32;10.52;;;5.53;;
20036;SDS011;10179;42.640;23.312;2023-09-19T02:00:06;7.72;;;5.47;;
20036;SDS011;10179;42.640;23.312;2023-09-19T02:02:35;8.05;;;5.90;;
20036;SDS011;10179;42.640;23.312;2023-09-19T02:05:02;9.23;;;5.38;;
20036;SDS011;10179;42.640;23.312;2023-09-19T02:07:29;10.57;;;6.13;;
20036;SDS011;10179;42.640;23.312;2023-09-19T02:09:56;8.15;;;5.47;;
20036;SDS011;10179;42.640;23.312;2023-09-19T02:12:24;8.43;;;5.20;;
20036;SDS011;10179;42.640;23.312;2023-09-19T02:14:49;8.38;;;5.55;;
20036;SDS011;10179;42.640;23.312;2023-09-19T02:17:15;7.95;;;5.15;;
20036;SDS011;10179;42.640;23.312;2023-09-19T02:19:40;8.68;;;5.70;;
20036;SDS011;10179;42.640;23.312;2023-09-19T02:22:06;8.55;;;5.53;;
20036;SDS011;10179;42.640;23.312;2023-09-19T02:24:35;7.25;;;5.32;;
20036;SDS011;10179;42.640;23.312;2023-09-19T02:27:04;8.25;;;5.65;;
20036;SDS011;10179;42.640;23.312;2023-09-19T02:29:30;9.48;;;5.93;;
20036;SDS011;10179;42.640;23.312;2023-09-19T02:31:55;9.05;;;5.78;;
20036;SDS011;10179;42.640;23.312;2023-09-19T02:34:21;11.77;;;6.03;;
20036;SDS011;10179;42.640;23.312;2023-09-19T02:36:47;8.55;;;6.18;;
20036;SDS011;10179;42.640;23.312;2023-09-19T02:39:12;9.15;;;5.95;;
20036;SDS011;10179;42.640;23.312;2023-09-19T02:41:38;7.40;;;5.78;;
20036;SDS011;10179;42.640;23.312;2023-09-19T02:44:03;9.32;;;5.95;;
20036;SDS011;10179;42.640;23.312;2023-09-19T02:46:32;9.27;;;5.93;;
20036;SDS011;10179;42.640;23.312;2023-09-19T02:48:58;9.95;;;6.45;;
20036;SDS011;10179;42.640;23.312;2023-09-19T02:51:24;9.82;;;6.43;;
20036;SDS011;10179;42.640;23.312;2023-09-19T02:53:50;14.00;;;6.93;;
20036;SDS011;10179;42.640;23.312;2023-09-19T02:56:17;8.77;;;6.47;;
20036;SDS011;10179;42.640;23.312;2023-09-19T02:58:43;7.88;;;5.90;;
20036;SDS011;10179;42.640;23.312;2023-09-19T03:01:12;7.70;;;6.00;;
20036;SDS011;10179;42.640;23.312;2023-09-19T03:03:37;8.68;;;6.40;;
20036;SDS011;10179;42.640;23.312;2023-09-19T03:06:04;10.15;;;6.50;;
20036;SDS011;10179;42.640;23.312;2023-09-19T03:08:30;9.80;;;6.35;;
20036;SDS011;10179;42.640;23.312;2023-09-19T03:10:56;10.73;;;6.30;;
20036;SDS011;10179;42.640;23.312;2023-09-19T03:13:21;10.00;;;6.68;;
20036;SDS011;10179;42.640;23.312;2023-09-19T03:15:47;12.23;;;6.90;;
20036;SDS011;10179;42.640;23.312;2023-09-19T03:18:15;9.30;;;6.30;;
20036;SDS011;10179;42.640;23.312;2023-09-19T03:20:41;12.05;;;6.68;;
20036;SDS011;10179;42.640;23.312;2023-09-19T03:23:06;8.10;;;6.10;;
20036;SDS011;10179;42.640;23.312;2023-09-19T03:25:33;9.65;;;6.43;;
20036;SDS011;10179;42.640;23.312;2023-09-19T03:27:59;10.43;;;6.63;;
20036;SDS011;10179;42.640;23.312;2023-09-19T03:30:26;9.38;;;6.43;;
20036;SDS011;10179;42.640;23.312;2023-09-19T03:32:51;10.95;;;7.13;;
20036;SDS011;10179;42.640;23.312;2023-09-19T03:35:17;13.82;;;6.60;;
20036;SDS011;10179;42.640;23.312;2023-09-19T03:37:43;9.45;;;6.53;;
20036;SDS011;10179;42.640;23.312;2023-09-19T03:40:09;9.35;;;6.57;;
20036;SDS011;10179;42.640;23.312;2023-09-19T03:42:38;9.30;;;6.30;;
20036;SDS011;10179;42.640;23.312;2023-09-19T03:45:04;12.88;;;6.95;;
20036;SDS011;10179;42.640;23.312;2023-09-19T03:47:31;6.78;;;5.35;;
20036;SDS011;10179;42.640;23.312;2023-09-19T03:49:57;10.38;;;7.00;;
20036;SDS011;10179;42.640;23.312;2023-09-19T03:52:23;13.77;;;6.57;;
20036;SDS011;10179;42.640;23.312;2023-09-19T03:54:50;11.52;;;6.85;;
20036;SDS011;10179;42.640;23.312;2023-09-19T03:57:15;9.98;;;7.15;;
20036;SDS011;10179;42.640;23.312;2023-09-19T03:59:45;13.60;;;7.05;;
20036;SDS011;10179;42.640;23.312;2023-09-19T04:02:11;8.25;;;6.20;;
20036;SDS011;10179;42.640;23.312;2023-09-19T04:04:47;9.50;;;6.65;;
20036;SDS011;10179;42.640;23.312;2023-09-19T04:07:18;10.07;;;6.97;;
20036;SDS011;10179;42.640;23.312;2023-09-19T04:09:44;9.85;;;7.47;;
20036;SDS011;10179;42.640;23.312;2023-09-19T04:12:11;12.77;;;7.18;;
20036;SDS011;10179;42.640;23.312;2023-09-19T04:14:37;12.80;;;6.70;;
20036;SDS011;10179;42.640;23.312;2023-09-19T04:17:03;17.52;;;7.50;;
20036;SDS011;10179;42.640;23.312;2023-09-19T04:19:30;10.80;;;7.13;;
20036;SDS011;10179;42.640;23.312;2023-09-19T04:21:55;9.95;;;7.10;;
20036;SDS011;10179;42.640;23.312;2023-09-19T04:24:21;10.82;;;6.63;;
20036;SDS011;10179;42.640;23.312;2023-09-19T04:26:46;16.73;;;7.53;;
20036;SDS011;10179;42.640;23.312;2023-09-19T04:29:12;13.63;;;6.85;;
20036;SDS011;10179;42.640;23.312;2023-09-19T04:31:39;14.70;;;7.15;;
20036;SDS011;10179;42.640;23.312;2023-09-19T04:34:05;12.40;;;6.15;;
20036;SDS011;10179;42.640;23.312;2023-09-19T04:36:33;12.85;;;6.70;;
20036;SDS011;10179;42.640;23.312;2023-09-19T04:38:58;11.90;;;7.45;;
20036;SDS011;10179;42.640;23.312;2023-09-19T04:41:25;8.40;;;6.22;;
20036;SDS011;10179;42.640;23.312;2023-09-19T04:43:50;12.07;;;6.68;;
20036;SDS011;10179;42.640;23.312;2023-09-19T04:46:16;12.75;;;6.97;;
20036;SDS011;10179;42.640;23.312;2023-09-19T04:48:43;11.18;;;7.03;;
20036;SDS011;10179;42.640;23.312;2023-09-19T04:51:08;8.88;;;6.00;;
20036;SDS011;10179;42.640;23.312;2023-09-19T04:53:35;11.80;;;6.65;;
20036;SDS011;10179;42.640;23.312;2023-09-19T04:56:01;10.52;;;6.15;;
20036;SDS011;10179;42.640;23.312;2023-09-19T04:58:28;16.23;;;7.20;;
20036;SDS011;10179;42.640;23.312;2023-09-19T05:00:54;10.15;;;6.35;;
20036;SDS011;10179;42.640;23.312;2023-09-19T05:03:19;8.77;;;6.18;;
20036;SDS011;10179;42.640;23.312;2023-09-19T05:05:46;9.75;;;6.22;;
20036;SDS011;10179;42.640;23.312;2023-09-19T05:08:11;13.68;;;6.65;;
20036;SDS011;10179;42.640;23.312;2023-09-19T05:10:39;11.13;;;6.57;;
20036;SDS011;10179;42.640;23.312;2023-09-19T05:13:05;19.30;;;6.68;;
20036;SDS011;10179;42.640;23.312;2023-09-19T05:15:32;14.45;;;6.38;;
20036;SDS011;10179;42.640;23.312;2023-09-19T05:17:58;9.57;;;5.60;;
20036;SDS011;10179;42.640;23.312;2023-09-19T05:20:23;14.27;;;6.60;;
20036;SDS011;10179;42.640;23.312;2023-09-19T05:23:02;9.27;;;6.53;;
20036;SDS011;10179;42.640;23.312;2023-09-19T05:25:34;9.13;;;6.00;;
20036;SDS011;10179;42.640;23.312;2023-09-19T05:28:07;15.93;;;6.60;;
20036;SDS011;10179;42.640;23.312;2023-09-19T05:30:33;9.38;;;6.22;;
20036;SDS011;10179;42.640;23.312;2023-09-19T05:33:01;11.65;;;6.57;;
20036;SDS011;10179;42.640;23.312;2023-09-19T05:35:27;11.10;;;6.72;;
20036;SDS011;10179;42.640;23.312;2023-09-19T05:37:52;10.23;;;5.90;;
20036;SDS011;10179;42.640;23.312;2023-09-19T05:40:20;11.27;;;6.75;;
20036;SDS011;10179;42.640;23.312;2023-09-19T05:42:45;13.43;;;6.25;;
20036;SDS011;10179;42.640;23.312;2023-09-19T05:45:12;10.30;;;5.95;;
20036;SDS011;10179;42.640;23.312;2023-09-19T05:47:39;14.52;;;5.55;;
20036;SDS011;10179;42.640;23.312;2023-09-19T05:50:06;11.57;;;6.35;;
20036;SDS011;10179;42.640;23.312;2023-09-19T05:52:34;11.13;;;5.45;;
20036;SDS011;10179;42.640;23.312;2023-09-19T05:55:04;10.73;;;6.63;;
20036;SDS011;10179;42.640;23.312;2023-09-19T05:57:31;10.25;;;6.22;;
20036;SDS011;10179;42.640;23.312;2023-09-19T05:59:57;17.10;;;6.35;;
20036;SDS011;10179;42.640;23.312;2023-09-19T06:02:23;8.88;;;6.35;;
20036;SDS011;10179;42.640;23.312;2023-09-19T06:04:48;14.82;;;6.43;;
20036;SDS011;10179;42.640;23.312;2023-09-19T06:07:14;8.00;;;5.30;;
20036;SDS011;10179;42.640;23.312;2023-09-19T06:09:41;6.68;;;4.70;;
20036;SDS011;10179;42.640;23.312;2023-09-19T06:12:06;10.88;;;5.07;;
20036;SDS011;10179;42.640;23.312;2023-09-19T06:14:32;6.95;;;4.47;;
20036;SDS011;10179;42.640;23.312;2023-09-19T06:16:58;11.90;;;5.47;;
20036;SDS011;10179;42.640;23.312;2023-09-19T06:19:23;8.02;;;4.68;;
20036;SDS011;10179;42.640;23.312;2023-09-19T06:21:51;9.32;;;4.97;;
20036;SDS011;10179;42.640;23.312;2023-09-19T06:24:18;6.50;;;4.30;;
20036;SDS011;10179;42.640;23.312;2023-09-19T06:26:44;8.55;;;4.70;;
20036;SDS011;10179;42.640;23.312;2023-09-19T06:29:10;6.20;;;3.95;;
20036;SDS011;10179;42.640;23.312;2023-09-19T06:31:35;11.98;;;5.10;;
20036;SDS011;10179;42.640;23.312;2023-09-19T06:34:03;7.57;;;4.40;;
20036;SDS011;10179;42.640;23.312;2023-09-19T06:36:29;9.73;;;4.32;;
20036;SDS011;10179;42.640;23.312;2023-09-19T06:38:54;8.07;;;4.55;;
20036;SDS011;10179;42.640;23.312;2023-09-19T06:41:20;8.48;;;4.43;;
20036;SDS011;10179;42.640;23.312;2023-09-19T06:43:49;10.52;;;4.28;;
20036;SDS011;10179;42.640;23.312;2023-09-19T06:46:17;11.02;;;5.05;;
20036;SDS011;10179;42.640;23.312;2023-09-19T06:48:43;9.20;;;5.13;;
20036;SDS011;10179;42.640;23.312;2023-09-19T06:51:09;9.95;;;4.47;;
20036;SDS011;10179;42.640;23.312;2023-09-19T06:53:35;9.15;;;3.90;;
20036;SDS011;10179;42.640;23.312;2023-09-19T06:56:01;8.10;;;4.70;;
20036;SDS011;10179;42.640;23.312;2023-09-19T06:58:27;8.88;;;4.82;;
20036;SDS011;10179;42.640;23.312;2023-09-19T07:00:52;9.00;;;4.22;;
20036;SDS011;10179;42.640;23.312;2023-09-19T07:03:19;13.98;;;4.60;;
20036;SDS011;10179;42.640;23.312;2023-09-19T07:05:47;9.15;;;4.95;;
20036;SDS011;10179;42.640;23.312;2023-09-19T07:08:13;9.45;;;3.92;;
20036;SDS011;10179;42.640;23.312;2023-09-19T07:10:39;9.63;;;5.50;;
20036;SDS011;10179;42.640;23.312;2023-09-19T07:13:13;11.10;;;5.25;;
20036;SDS011;10179;42.640;23.312;2023-09-19T07:15:41;6.82;;;4.50;;
20036;SDS011;10179;42.640;23.312;2023-09-19T07:18:11;8.95;;;4.68;;
20036;SDS011;10179;42.640;23.312;2023-09-19T07:20:39;11.35;;;4.80;;
20036;SDS011;10179;42.640;23.312;2023-09-19T07:23:05;9.30;;;4.28;;
20036;SDS011;10179;42.640;23.312;2023-09-19T07:25:31;8.32;;;4.55;;
20036;SDS011;10179;42.640;23.312;2023-09-19T07:27:57;15.27;;;5.20;;
20036;SDS011;10179;42.640;23.312;2023-09-19T07:30:26;11.93;;;4.88;;
20036;SDS011;10179;42.640;23.312;2023-09-19T07:32:53;14.43;;;5.97;;
20036;SDS011;10179;42.640;23.312;2023-09-19T07:35:19;10.27;;;4.65;;
20036;SDS011;10179;42.640;23.312;2023-09-19T07:37:47;16.25;;;5.53;;
20036;SDS011;10179;42.640;23.312;2023-09-19T07:40:14;25.77;;;9.50;;
20036;SDS011;10179;42.640;23.312;2023-09-19T07:42:40;22.95;;;9.02;;
20036;SDS011;10179;42.640;23.312;2023-09-19T07:45:06;14.55;;;5.43;;
20036;SDS011;10179;42.640;23.312;2023-09-19T07:47:33;10.23;;;5.10;;
20036;SDS011;10179;42.640;23.312;2023-09-19T07:49:59;15.23;;;5.85;;
20036;SDS011;10179;42.640;23.312;2023-09-19T07:52:26;17.30;;;5.50;;
20036;SDS011;10179;42.640;23.312;2023-09-19T07:54:52;11.52;;;4.88;;
20036;SDS011;10179;42.640;23.312;2023-09-19T07:57:18;11.00;;;5.22;;
20036;SDS011;10179;42.640;23.312;2023-09-19T07:59:44;9.15;;;4.75;;
20036;SDS011;10179;42.640;23.312;2023-09-19T08:02:10;7.57;;;5.05;;
20036;SDS011;10179;42.640;23.312;2023-09-19T08:04:44;10.35;;;4.72;;
20036;SDS011;10179;42.640;23.312;2023-09-19T08:07:14;11.75;;;5.45;;
20036;SDS011;10179;42.640;23.312;2023-09-19T08:09:39;15.50;;;5.57;;
20036;SDS011;10179;42.640;23.312;2023-09-19T08:12:05;10.15;;;5.53;;
20036;SDS011;10179;42.640;23.312;2023-09-19T08:14:33;12.10;;;5.10;;
20036;SDS011;10179;42.640;23.312;2023-09-19T08:16:58;7.50;;;4.80;;
20036;SDS011;10179;42.640;23.312;2023-09-19T08:19:25;13.80;;;5.30;;
20036;SDS011;10179;42.640;23.312;2023-09-19T08:21:56;8.63;;;4.72;;
20036;SDS011;10179;42.640;23.312;2023-09-19T08:24:25;9.50;;;5.15;;
20036;SDS011;10179;42.640;23.312;2023-09-19T08:26:53;7.15;;;4.90;;
20036;SDS011;10179;42.640;23.312;2023-09-19T08:29:19;13.88;;;5.20;;
20036;SDS011;10179;42.640;23.312;2023-09-19T08:31:45;8.00;;;3.97;;
20036;SDS011;10179;42.640;23.312;2023-09-19T08:34:12;10.82;;;5.15;;
20036;SDS011;10179;42.640;23.312;2023-09-19T08:36:38;9.57;;;4.57;;
20036;SDS011;10179;42.640;23.312;2023-09-19T08:39:04;8.18;;;5.07;;
20036;SDS011;10179;42.640;23.312;2023-09-19T08:41:29;10.23;;;5.03;;
20036;SDS011;10179;42.640;23.312;2023-09-19T08:43:58;11.27;;;4.90;;
20036;SDS011;10179;42.640;23.312;2023-09-19T08:46:26;10.25;;;4.90;;
20036;SDS011;10179;42.640;23.312;2023-09-19T08:49:19;18.67;;;5.35;;
20036;SDS011;10179;42.640;23.312;2023-09-19T08:52:10;16.20;;;4.90;;
20036;SDS011;10179;42.640;23.312;2023-09-19T08:54:45;15.27;;;4.68;;
20036;SDS011;10179;42.640;23.312;2023-09-19T08:57:13;11.18;;;5.15;;
20036;SDS011;10179;42.640;23.312;2023-09-19T09:02:12;11.00;;;4.88;;
20036;SDS011;10179;42.640;23.312;2023-09-19T09:04:42;10.90;;;4.90;;
20036;SDS011;10179;42.640;23.312;2023-09-19T09:07:12;13.80;;;5.47;;
20036;SDS011;10179;42.640;23.312;2023-09-19T09:09:38;9.98;;;5.60;;
20036;SDS011;10179;42.640;23.312;2023-09-19T09:12:08;17.40;;;5.22;;
20036;SDS011;10179;42.640;23.312;2023-09-19T09:14:38;14.40;;;5.45;;
20036;SDS011;10179;42.640;23.312;2023-09-19T09:17:04;8.88;;;5.07;;
20036;SDS011;10179;42.640;23.312;2023-09-19T09:19:30;11.73;;;4.93;;
20036;SDS011;10179;42.640;23.312;2023-09-19T09:22:05;8.25;;;4.57;;
20036;SDS011;10179;42.640;23.312;2023-09-19T09:24:34;9.55;;;5.15;;
20036;SDS011;10179;42.640;23.312;2023-09-19T09:27:03;10.52;;;4.82;;
20036;SDS011;10179;42.640;23.312;2023-09-19T09:29:42;16.20;;;5.30;;
20036;SDS011;10179;42.640;23.312;2023-09-19T09:34:55;15.90;;;6.60;;
20036;SDS011;10179;42.640;23.312;2023-09-19T09:37:22;11.68;;;5.22;;
20036;SDS011;10179;42.640;23.312;2023-09-19T09:39:58;9.60;;;5.43;;
20036;SDS011;10179;42.640;23.312;2023-09-19T09:42:44;11.57;;;6.22;;
20036;SDS011;10179;42.640;23.312;2023-09-19T09:47:42;10.27;;;4.85;;
20036;SDS011;10179;42.640;23.312;2023-09-19T09:50:30;12.80;;;4.90;;
20036;SDS011;10179;42.640;23.312;2023-09-19T09:58:37;15.57;;;6.03;;
20036;SDS011;10179;42.640;23.312;2023-09-19T10:01:14;13.43;;;6.85;;
20036;SDS011;10179;42.640;23.312;2023-09-19T10:03:41;12.90;;;4.85;;
20036;SDS011;10179;42.640;23.312;2023-09-19T10:06:13;8.93;;;4.88;;
20036;SDS011;10179;42.640;23.312;2023-09-19T10:09:05;11.82;;;5.32;;
20036;SDS011;10179;42.640;23.312;2023-09-19T10:12:05;13.02;;;5.45;;
20036;SDS011;10179;42.640;23.312;2023-09-19T10:14:34;8.02;;;4.40;;
20036;SDS011;10179;42.640;23.312;2023-09-19T10:17:03;7.53;;;4.82;;
20036;SDS011;10179;42.640;23.312;2023-09-19T10:19:36;10.15;;;5.00;;
20036;SDS011;10179;42.640;23.312;2023-09-19T10:22:02;12.70;;;4.93;;
20036;SDS011;10179;42.640;23.312;2023-09-19T10:24:30;13.15;;;4.70;;
20036;SDS011;10179;42.640;23.312;2023-09-19T10:26:59;10.65;;;4.70;;
20036;SDS011;10179;42.640;23.312;2023-09-19T10:29:25;11.35;;;5.03;;
20036;SDS011;10179;42.640;23.312;2023-09-19T10:31:56;8.45;;;4.30;;
20036;SDS011;10179;42.640;23.312;2023-09-19T10:34:23;6.97;;;4.10;;
20036;SDS011;10179;42.640;23.312;2023-09-19T10:36:51;8.55;;;4.75;;
20036;SDS011;10179;42.640;23.312;2023-09-19T10:39:19;9.23;;;4.43;;
20036;SDS011;10179;42.640;23.312;2023-09-19T10:41:47;12.43;;;4.50;;
20036;SDS011;10179;42.640;23.312;2023-09-19T10:44:25;8.73;;;4.68;;
20036;SDS011;10179;42.640;23.312;2023-09-19T10:46:54;10.13;;;4.78;;
20036;SDS011;10179;42.640;23.312;2023-09-19T10:49:20;9.43;;;4.75;;
20036;SDS011;10179;42.640;23.312;2023-09-19T10:51:47;12.52;;;4.50;;
20036;SDS011;10179;42.640;23.312;2023-09-19T10:54:15;9.25;;;5.00;;
20036;SDS011;10179;42.640;23.312;2023-09-19T10:56:46;8.20;;;4.47;;
20036;SDS011;10179;42.640;23.312;2023-09-19T10:59:16;11.48;;;4.85;;
20036;SDS011;10179;42.640;23.312;2023-09-19T11:01:44;6.28;;;4.25;;
20036;SDS011;10179;42.640;23.312;2023-09-19T11:07:14;9.33;;;4.00;;
20036;SDS011;10179;42.640;23.312;2023-09-19T11:15:08;7.88;;;4.25;;
20036;SDS011;10179;42.640;23.312;2023-09-19T11:17:36;5.78;;;4.28;;
20036;SDS011;10179;42.640;23.312;2023-09-19T11:30:33;7.55;;;4.25;;
20036;SDS011;10179;42.640;23.312;2023-09-19T11:36:05;12.43;;;4.40;;
20036;SDS011;10179;42.640;23.312;2023-09-19T11:46:25;9.88;;;4.60;;
20036;SDS011;10179;42.640;23.312;2023-09-19T11:48:53;6.90;;;4.60;;
20036;SDS011;10179;42.640;23.312;2023-09-19T11:51:20;8.35;;;4.13;;
20036;SDS011;10179;42.640;23.312;2023-09-19T11:54:01;9.32;;;4.30;;
20036;SDS011;10179;42.640;23.312;2023-09-19T11:56:28;13.27;;;4.50;;
20036;SDS011;10179;42.640;23.312;2023-09-19T11:58:56;8.95;;;4.18;;
20036;SDS011;10179;42.640;23.312;2023-09-19T12:03:55;7.47;;;4.33;;
20036;SDS011;10179;42.640;23.312;2023-09-19T12:06:22;8.57;;;4.40;;
20036;SDS011;10179;42.640;23.312;2023-09-19T12:08:49;8.85;;;4.85;;
20036;SDS011;10179;42.640;23.312;2023-09-19T12:11:16;6.28;;;4.10;;
20036;SDS011;10179;42.640;23.312;2023-09-19T12:13:42;14.45;;;4.70;;
20036;SDS011;10179;42.640;23.312;2023-09-19T12:16:13;9.82;;;4.82;;
20036;SDS011;10179;42.640;23.312;2023-09-19T12:18:41;6.95;;;4.28;;
20036;SDS011;10179;42.640;23.312;2023-09-19T12:21:20;10.85;;;4.68;;
20036;SDS011;10179;42.640;23.312;2023-09-19T12:23:59;7.53;;;4.43;;
20036;SDS011;10179;42.640;23.312;2023-09-19T12:26:44;8.70;;;4.57;;
20036;SDS011;10179;42.640;23.312;2023-09-19T12:29:15;12.85;;;5.55;;
20036;SDS011;10179;42.640;23.312;2023-09-19T12:31:55;10.63;;;4.40;;
20036;SDS011;10179;42.640;23.312;2023-09-19T12:34:29;8.13;;;4.85;;
20036;SDS011;10179;42.640;23.312;2023-09-19T12:39:45;8.55;;;4.60;;
20036;SDS011;10179;42.640;23.312;2023-09-19T12:42:16;7.18;;;4.20;;
20036;SDS011;10179;42.640;23.312;2023-09-19T12:44:46;9.13;;;3.95;;
20036;SDS011;10179;42.640;23.312;2023-09-19T12:47:17;7.65;;;4.20;;
20036;SDS011;10179;42.640;23.312;2023-09-19T12:53:00;10.32;;;4.32;;
20036;SDS011;10179;42.640;23.312;2023-09-19T12:57:59;7.13;;;4.22;;
20036;SDS011;10179;42.640;23.312;2023-09-19T13:00:40;8.52;;;4.00;;
20036;SDS011;10179;42.640;23.312;2023-09-19T13:06:04;10.85;;;4.68;;
20036;SDS011;10179;42.640;23.312;2023-09-19T13:08:32;9.38;;;3.95;;
20036;SDS011;10179;42.640;23.312;2023-09-19T13:13:39;6.05;;;3.80;;
20036;SDS011;10179;42.640;23.312;2023-09-19T13:16:04;6.55;;;3.85;;
20036;SDS011;10179;42.640;23.312;2023-09-19T13:18:54;5.93;;;4.00;;
20036;SDS011;10179;42.640;23.312;2023-09-19T13:21:33;6.88;;;4.35;;
20036;SDS011;10179;42.640;23.312;2023-09-19T13:24:24;7.82;;;3.90;;
20036;SDS011;10179;42.640;23.312;2023-09-19T13:26:55;6.03;;;3.85;;
20036;SDS011;10179;42.640;23.312;2023-09-19T13:29:21;13.93;;;3.90;;
20036;SDS011;10179;42.640;23.312;2023-09-19T13:31:47;9.52;;;4.13;;
20036;SDS011;10179;42.640;23.312;2023-09-19T13:34:14;5.47;;;3.80;;
20036;SDS011;10179;42.640;23.312;2023-09-19T13:36:41;8.98;;;4.38;;
20036;SDS011;10179;42.640;23.312;2023-09-19T13:39:07;6.72;;;3.88;;
20036;SDS011;10179;42.640;23.312;2023-09-19T13:41:34;7.90;;;3.55;;
20036;SDS011;10179;42.640;23.312;2023-09-19T13:44:01;6.10;;;3.88;;
20036;SDS011;10179;42.640;23.312;2023-09-19T13:46:28;10.05;;;4.28;;
20036;SDS011;10179;42.640;23.312;2023-09-19T13:48:53;7.40;;;3.72;;
20036;SDS011;10179;42.640;23.312;2023-09-19T13:51:20;7.07;;;3.65;;
20036;SDS011;10179;42.640;23.312;2023-09-19T13:53:48;8.77;;;4.00;;
20036;SDS011;10179;42.640;23.312;2023-09-19T13:56:13;6.53;;;3.97;;
20036;SDS011;10179;42.640;23.312;2023-09-19T13:58:39;5.40;;;3.33;;
20036;SDS011;10179;42.640;23.312;2023-09-19T14:01:06;8.70;;;4.20;;
20036;SDS011;10179;42.640;23.312;2023-09-19T14:03:37;7.13;;;3.72;;
20036;SDS011;10179;42.640;23.312;2023-09-19T14:06:03;4.75;;;3.67;;
20036;SDS011;10179;42.640;23.312;2023-09-19T14:08:28;12.15;;;3.65;;
20036;SDS011;10179;42.640;23.312;2023-09-19T14:10:54;6.00;;;4.00;;
20036;SDS011;10179;42.640;23.312;2023-09-19T14:13:19;6.95;;;4.57;;
20036;SDS011;10179;42.640;23.312;2023-09-19T14:15:45;10.57;;;5.22;;
20036;SDS011;10179;42.640;23.312;2023-09-19T14:18:11;10.93;;;7.95;;
20036;SDS011;10179;42.640;23.312;2023-09-19T14:20:39;14.50;;;8.60;;
20036;SDS011;10179;42.640;23.312;2023-09-19T14:23:06;6.43;;;4.28;;
20036;SDS011;10179;42.640;23.312;2023-09-19T14:25:33;5.20;;;3.42;;
20036;SDS011;10179;42.640;23.312;2023-09-19T14:27:59;6.40;;;3.70;;
20036;SDS011;10179;42.640;23.312;2023-09-19T14:30:25;6.22;;;3.78;;
20036;SDS011;10179;42.640;23.312;2023-09-19T14:32:51;5.88;;;3.88;;
20036;SDS011;10179;42.640;23.312;2023-09-19T14:35:16;7.35;;;3.80;;
20036;SDS011;10179;42.640;23.312;2023-09-19T14:37:42;7.68;;;3.90;;
20036;SDS011;10179;42.640;23.312;2023-09-19T14:40:08;8.70;;;4.63;;
20036;SDS011;10179;42.640;23.312;2023-09-19T14:42:35;10.82;;;4.70;;
20036;SDS011;10179;42.640;23.312;2023-09-19T14:45:03;7.15;;;5.00;;
20036;SDS011;10179;42.640;23.312;2023-09-19T14:47:30;12.02;;;5.60;;
20036;SDS011;10179;42.640;23.312;2023-09-19T14:49:58;14.05;;;5.85;;
20036;SDS011;10179;42.640;23.312;2023-09-19T14:52:24;8.15;;;4.88;;
20036;SDS011;10179;42.640;23.312;2023-09-19T14:54:53;7.07;;;5.07;;
20036;SDS011;10179;42.640;23.312;2023-09-19T14:57:18;8.27;;;4.90;;
20036;SDS011;10179;42.640;23.312;2023-09-19T14:59:44;15.30;;;6.95;;
20036;SDS011;10179;42.640;23.312;2023-09-19T15:02:09;12.73;;;5.38;;
20036;SDS011;10179;42.640;23.312;2023-09-19T15:04:35;14.48;;;6.70;;
20036;SDS011;10179;42.640;23.312;2023-09-19T15:07:00;10.98;;;5.93;;
20036;SDS011;10179;42.640;23.312;2023-09-19T15:09:25;15.27;;;6.82;;
20036;SDS011;10179;42.640;23.312;2023-09-19T15:11:51;16.13;;;5.00;;
20036;SDS011;10179;42.640;23.312;2023-09-19T15:14:18;7.80;;;4.03;;
20036;SDS011;10179;42.640;23.312;2023-09-19T15:16:43;16.75;;;4.60;;
20036;SDS011;10179;42.640;23.312;2023-09-19T15:19:09;16.05;;;5.82;;
20036;SDS011;10179;42.640;23.312;2023-09-19T15:21:35;16.17;;;5.25;;
20036;SDS011;10179;42.640;23.312;2023-09-19T15:24:02;8.18;;;4.50;;
20036;SDS011;10179;42.640;23.312;2023-09-19T15:26:28;10.10;;;5.20;;
20036;SDS011;10179;42.640;23.312;2023-09-19T15:28:55;7.30;;;4.30;;
20036;SDS011;10179;42.640;23.312;2023-09-19T15:31:20;11.57;;;4.53;;
20036;SDS011;10179;42.640;23.312;2023-09-19T15:33:46;7.40;;;3.95;;
20036;SDS011;10179;42.640;23.312;2023-09-19T15:36:15;10.80;;;4.90;;
20036;SDS011;10179;42.640;23.312;2023-09-19T15:41:21;10.38;;;4.47;;
20036;SDS011;10179;42.640;23.312;2023-09-19T15:43:47;7.65;;;4.05;;
20036;SDS011;10179;42.640;23.312;2023-09-19T15:46:13;17.70;;;4.78;;
20036;SDS011;10179;42.640;23.312;2023-09-19T15:48:40;7.53;;;4.82;;
20036;SDS011;10179;42.640;23.312;2023-09-19T15:51:05;12.90;;;5.10;;
20036;SDS011;10179;42.640;23.312;2023-09-19T15:53:39;8.80;;;5.20;;
20036;SDS011;10179;42.640;23.312;2023-09-19T15:56:09;9.38;;;5.05;;